Time;durP1;ratioP1;P1;durP2;ratioP2;P2;SDS_P1;SDS_P2;PMS_P1;PMS_P2;Temp;Humidity;BMP_temperature;BMP_pressure;BME280_temperature;BME280_humidity;BME280_pressure;Samples;Min_cycle;Max_cycle;Signal;HPM_P1;HPM_P2
2022/09/17 00:00:42;;;;;;;1999.90;821.35;;;12.40;99.90;;;;;;5109371;28;20400;-80
2022/09/17 00:03:09;;;;;;;1999.90;999.90;;;12.00;99.90;;;;;;5110774;28;20399;-79
2022/09/17 00:05:36;;;;;;;1999.90;814.05;;;12.00;99.90;;;;;;5110970;28;20055;-78
2022/09/17 00:08:04;;;;;;;1999.90;693.38;;;12.40;99.90;;;;;;5091663;28;20397;-77
2022/09/17 00:10:31;;;;;;;1999.90;928.22;;;11.80;99.90;;;;;;5110723;28;20489;-79
2022/09/17 00:12:57;;;;;;;1999.90;999.90;;;12.40;99.90;;;;;;5110283;28;20051;-77
2022/09/17 00:15:22;;;;;;;1999.90;999.90;;;12.60;99.90;;;;;;5110904;28;20142;-77
2022/09/17 00:17:57;;;;;;;1999.90;780.25;;;12.20;99.90;;;;;;5109451;28;20130;-77
2022/09/17 00:20:25;;;;;;;1999.90;999.90;;;12.40;99.90;;;;;;5092809;28;20047;-78
2022/09/17 00:22:51;;;;;;;1999.90;999.90;;;12.20;99.90;;;;;;5110773;28;20108;-78
2022/09/17 00:25:18;;;;;;;1999.90;647.25;;;12.40;99.90;;;;;;5112539;28;20087;-78
2022/09/17 00:27:44;;;;;;;1999.90;690.75;;;12.30;99.90;;;;;;5096882;28;20055;-80
2022/09/17 00:30:11;;;;;;;1999.90;999.90;;;13.80;99.90;;;;;;5114237;28;20044;-78
2022/09/17 00:32:37;;;;;;;1999.90;999.90;;;12.60;99.90;;;;;;5095856;28;20043;-83
2022/09/17 00:35:03;;;;;;;1999.90;999.90;;;12.00;99.90;;;;;;5094908;28;20039;-78
2022/09/17 00:37:28;;;;;;;1999.90;727.33;;;12.60;99.90;;;;;;5113612;28;20048;-81
2022/09/17 00:39:54;;;;;;;1999.90;999.90;;;13.80;99.90;;;;;;5113171;28;20040;-78
2022/09/17 00:42:21;;;;;;;1999.90;999.90;;;13.80;99.90;;;;;;5096264;28;20047;-78
2022/09/17 00:44:55;;;;;;;1999.90;999.90;;;12.60;99.90;;;;;;5079014;28;20092;-80
2022/09/17 00:47:29;;;;;;;1999.90;999.90;;;11.90;99.90;;;;;;5114266;28;20113;-78
2022/09/17 00:50:05;;;;;;;1999.90;999.90;;;12.50;99.90;;;;;;5113319;28;20051;-79
2022/09/17 00:52:40;;;;;;;1999.90;999.90;;;12.00;99.90;;;;;;5113887;28;20139;-79
2022/09/17 00:55:21;;;;;;;1999.90;999.90;;;12.40;99.90;;;;;;5095253;28;20051;-79
2022/09/17 00:57:50;;;;;;;1999.90;999.90;;;12.30;99.90;;;;;;5114363;28;20240;-79
2022/09/17 01:00:16;;;;;;;1999.90;999.90;;;11.80;99.90;;;;;;5113316;28;20044;-78
2022/09/17 01:02:43;;;;;;;1999.90;999.90;;;11.80;99.90;;;;;;5113615;28;20520;-78
2022/09/17 01:05:11;;;;;;;1999.90;999.90;;;11.80;99.90;;;;;;5095524;28;20112;-83
2022/09/17 01:07:45;;;;;;;1999.90;999.90;;;11.90;99.90;;;;;;5094578;28;20096;-79
2022/09/17 01:10:43;;;;;;;1999.90;999.90;;;12.20;99.90;;;;;;5095602;28;20255;-79
2022/09/17 01:13:33;;;;;;;1999.90;999.90;;;12.10;99.90;;;;;;5105686;28;20135;-78
2022/09/17 01:16:13;;;;;;;1999.90;999.90;;;11.60;99.90;;;;;;5106698;28;20107;-83
2022/09/17 01:18:47;;;;;;;1999.90;999.90;;;12.30;99.90;;;;;;5092328;28;20074;-85
2022/09/17 01:21:36;;;;;;;1999.90;999.90;;;12.10;99.90;;;;;;5092925;28;20048;-78
2022/09/17 01:24:08;;;;;;;1999.90;999.90;;;12.10;99.90;;;;;;5091241;28;20091;-78
2022/09/17 01:27:04;;;;;;;1999.90;999.90;;;12.10;99.90;;;;;;5091859;28;20055;-78
2022/09/17 01:29:38;;;;;;;1999.90;999.90;;;12.20;99.90;;;;;;5092922;28;20051;-78
2022/09/17 01:32:24;;;;;;;1999.90;999.90;;;12.10;99.90;;;;;;5092707;28;20054;-78
2022/09/17 01:34:56;;;;;;;1999.90;999.90;;;11.60;99.90;;;;;;5092735;28;20035;-78
2022/09/17 01:37:41;;;;;;;1999.90;644.45;;;11.50;99.90;;;;;;5090756;28;20048;-77
2022/09/17 01:40:24;;;;;;;1999.90;999.90;;;11.80;99.90;;;;;;5092028;28;20047;-77
2022/09/17 01:42:57;;;;;;;1999.90;999.90;;;11.60;99.90;;;;;;5092689;28;20098;-81
2022/09/17 01:45:36;;;;;;;1999.90;763.47;;;12.20;99.90;;;;;;5092104;28;20044;-77
2022/09/17 01:48:26;;;;;;;1999.90;999.90;;;11.50;99.90;;;;;;5092449;28;20526;-79
2022/09/17 01:51:21;;;;;;;1999.90;718.20;;;11.70;99.90;;;;;;5093493;28;20044;-83
2022/09/17 01:54:16;;;;;;;1999.90;999.90;;;12.10;99.90;;;;;;5091558;28;20122;-77
2022/09/17 01:56:48;;;;;;;1999.90;999.90;;;11.80;99.90;;;;;;5064505;28;20055;-76
2022/09/17 01:59:28;;;;;;;1999.90;999.90;;;12.70;99.90;;;;;;5092252;28;20044;-77
2022/09/17 02:02:24;;;;;;;1999.90;999.90;;;11.80;99.90;;;;;;5092273;28;20048;-78
2022/09/17 02:05:10;;;;;;;1999.90;999.90;;;12.00;99.90;;;;;;5088903;28;20060;-77
2022/09/17 02:07:43;;;;;;;1999.90;999.90;;;12.00;99.90;;;;;;5091948;28;20083;-79
2022/09/17 02:10:31;;;;;;;1999.90;999.90;;;11.50;99.90;;;;;;5091726;28;20476;-77
2022/09/17 02:13:05;;;;;;;1999.90;999.90;;;12.20;99.90;;;;;;5092077;28;20044;-77
2022/09/17 02:15:36;;;;;;;1999.90;999.90;;;11.80;99.90;;;;;;5093728;28;20459;-77
2022/09/17 02:18:26;;;;;;;1999.90;999.90;;;12.20;99.90;;;;;;5111827;28;20488;-83
2022/09/17 02:21:07;;;;;;;1999.90;999.90;;;11.40;99.90;;;;;;5112839;28;20361;-77
2022/09/17 02:23:38;;;;;;;1999.90;999.90;;;11.80;99.90;;;;;;5111841;28;20044;-77
2022/09/17 02:26:08;;;;;;;1999.90;999.90;;;12.20;99.90;;;;;;5093431;28;20483;-77
2022/09/17 02:29:03;;;;;;;1999.90;999.90;;;11.50;99.90;;;;;;5112160;28;20118;-78
2022/09/17 02:31:29;;;;;;;1999.90;999.90;;;11.90;99.90;;;;;;5111709;28;20389;-76
2022/09/17 02:34:00;;;;;;;1999.90;999.90;;;11.60;99.90;;;;;;5111410;28;20055;-83
2022/09/17 02:36:27;;;;;;;1999.90;999.90;;;12.20;99.90;;;;;;5111028;28;20087;-76
2022/09/17 02:39:00;;;;;;;1999.90;999.90;;;12.30;99.90;;;;;;5111838;28;20406;-77
2022/09/17 02:41:50;;;;;;;1999.90;999.90;;;12.40;99.90;;;;;;5111633;28;20043;-76
2022/09/17 02:44:21;;;;;;;;;;;12.60;99.90;;;;;;5111774;28;20126;-77
2022/09/17 02:46:59;;;;;;;1999.90;999.90;;;13.20;99.90;;;;;;5111937;28;19920;-77
2022/09/17 02:49:39;;;;;;;1999.90;999.90;;;12.70;99.90;;;;;;5092166;28;20044;-77
2022/09/17 02:52:22;;;;;;;1999.90;999.90;;;12.80;99.90;;;;;;5110105;28;20473;-77
2022/09/17 02:55:06;;;;;;;1999.90;999.90;;;12.50;99.90;;;;;;5111629;28;20092;-79
2022/09/17 02:57:59;;;;;;;1999.90;999.90;;;12.90;99.90;;;;;;5111673;28;20039;-84
2022/09/17 03:00:27;;;;;;;1999.90;999.90;;;12.60;99.90;;;;;;5111328;28;20040;-77
2022/09/17 03:03:01;;;;;;;1999.90;999.90;;;12.60;99.90;;;;;;5093345;28;20058;-77
2022/09/17 03:05:28;;;;;;;1999.90;999.90;;;11.80;99.90;;;;;;5110919;28;20697;-80
2022/09/17 03:07:55;;;;;;;1999.90;999.90;;;11.90;99.90;;;;;;5110477;28;20052;-76
2022/09/17 03:10:22;;;;;;;1999.90;999.90;;;11.80;99.90;;;;;;5111171;28;20068;-83
2022/09/17 03:12:48;;;;;;;1999.90;999.90;;;12.60;99.90;;;;;;5111242;28;20273;-76
2022/09/17 03:15:14;;;;;;;1999.90;999.90;;;13.50;99.90;;;;;;5110902;28;20044;-77
2022/09/17 03:17:40;;;;;;;1999.90;999.90;;;11.90;99.90;;;;;;5092736;28;20055;-76
2022/09/17 03:20:06;;;;;;;1999.90;999.90;;;13.10;99.90;;;;;;5110627;28;20090;-77
2022/09/17 03:22:31;;;;;;;1999.90;999.90;;;12.00;99.90;;;;;;5111265;28;20555;-79
2022/09/17 03:24:57;;;;;;;1999.90;999.90;;;12.50;99.90;;;;;;5110056;28;20127;-85
2022/09/17 03:27:23;;;;;;;1999.90;999.90;;;11.90;99.90;;;;;;5111759;28;20442;-78
2022/09/17 03:29:49;;;;;;;1999.90;999.90;;;12.30;99.90;;;;;;5111190;28;20103;-78
2022/09/17 03:32:14;;;;;;;1999.90;999.90;;;12.40;99.90;;;;;;5111272;28;20051;-78
2022/09/17 03:34:40;;;;;;;1999.90;999.90;;;13.80;99.90;;;;;;5110325;28;20047;-80
2022/09/17 03:37:05;;;;;;;1999.90;999.90;;;12.50;99.90;;;;;;5109666;28;20082;-77
2022/09/17 03:39:31;;;;;;;1999.90;999.90;;;12.50;99.90;;;;;;5092376;28;20054;-77
2022/09/17 03:41:57;;;;;;;1999.90;999.90;;;12.30;99.90;;;;;;5093164;28;20040;-77
2022/09/17 03:44:22;;;;;;;1999.90;999.90;;;12.00;99.90;;;;;;5110760;28;20047;-77
2022/09/17 03:46:49;;;;;;;1999.90;999.90;;;12.20;99.90;;;;;;5110136;28;20369;-81
2022/09/17 03:49:15;;;;;;;1999.90;999.90;;;11.90;99.90;;;;;;5111056;28;20131;-83
2022/09/17 03:51:40;;;;;;;1999.90;999.90;;;12.00;99.90;;;;;;5110711;28;20126;-83
2022/09/17 03:54:06;;;;;;;1999.90;999.90;;;12.50;99.90;;;;;;5110940;28;20097;-81
2022/09/17 03:56:32;;;;;;;1999.90;999.90;;;12.20;99.90;;;;;;5093289;28;20054;-80
2022/09/17 03:58:59;;;;;;;1999.90;999.90;;;13.20;99.90;;;;;;5110333;28;20393;-80
2022/09/17 04:01:26;;;;;;;1999.90;999.90;;;12.60;99.90;;;;;;5114249;28;20058;-78
2022/09/17 04:03:51;;;;;;;1999.90;999.90;;;12.80;99.90;;;;;;5096724;28;20472;-78
2022/09/17 04:06:18;;;;;;;1999.90;999.90;;;12.40;99.90;;;;;;5096160;28;20052;-77
2022/09/17 04:08:43;;;;;;;1999.90;999.90;;;12.50;99.90;;;;;;5114089;28;20044;-80
2022/09/17 04:11:09;;;;;;;1999.90;999.90;;;12.60;99.90;;;;;;5114899;28;20053;-77
2022/09/17 04:13:35;;;;;;;1999.90;999.90;;;12.40;99.90;;;;;;5096582;28;20104;-77
2022/09/17 04:16:02;;;;;;;1999.90;999.90;;;12.90;99.90;;;;;;5115068;28;20087;-78
2022/09/17 04:18:28;;;;;;;1999.90;999.90;;;12.30;99.90;;;;;;5114585;28;20047;-78
2022/09/17 04:20:53;;;;;;;1999.90;999.90;;;12.20;99.90;;;;;;5114684;28;20043;-78
2022/09/17 04:23:19;;;;;;;1999.90;999.90;;;12.50;99.90;;;;;;5113415;28;20089;-78
2022/09/17 04:25:45;;;;;;;1999.90;999.90;;;12.40;99.90;;;;;;5114716;28;20051;-77
2022/09/17 04:28:10;;;;;;;1999.90;999.90;;;11.80;99.90;;;;;;5096655;28;20492;-77
2022/09/17 04:30:36;;;;;;;1999.90;999.90;;;12.60;99.90;;;;;;5113576;28;20044;-77
2022/09/17 04:33:02;;;;;;;1999.90;999.90;;;12.40;99.90;;;;;;5113999;28;20480;-80
2022/09/17 04:35:28;;;;;;;1999.90;999.90;;;12.00;99.90;;;;;;5114317;28;20468;-77
2022/09/17 04:37:58;;;;;;;1999.90;999.90;;;13.00;99.90;;;;;;5114236;28;20065;-78
2022/09/17 04:40:25;;;;;;;1999.90;999.90;;;12.50;99.90;;;;;;5113190;28;20048;-77
2022/09/17 04:42:56;;;;;;;1999.90;999.90;;;12.90;99.90;;;;;;5114355;28;20086;-77
2022/09/17 04:45:22;;;;;;;1999.90;999.90;;;12.70;99.90;;;;;;5113798;28;20092;-78
2022/09/17 04:47:49;;;;;;;1999.90;999.90;;;11.90;99.90;;;;;;5114343;28;20507;-77
2022/09/17 04:50:17;;;;;;;1999.90;999.90;;;12.10;99.90;;;;;;5114037;28;20039;-80
2022/09/17 04:52:43;;;;;;;1999.90;999.90;;;12.10;99.90;;;;;;5113743;28;20431;-77
2022/09/17 04:55:09;;;;;;;1999.90;999.90;;;11.80;99.90;;;;;;5113918;28;20100;-77
2022/09/17 04:57:35;;;;;;;1999.90;999.90;;;12.30;99.90;;;;;;5114633;28;20047;-77
2022/09/17 05:00:01;;;;;;;1999.90;999.90;;;12.40;99.90;;;;;;5113478;28;20046;-85
2022/09/17 05:02:27;;;;;;;1999.90;999.90;;;11.80;99.90;;;;;;5113453;28;20089;-77
2022/09/17 05:04:52;;;;;;;1999.90;999.90;;;11.80;99.90;;;;;;5113872;28;20569;-77
2022/09/17 05:07:18;;;;;;;1999.90;999.90;;;12.00;99.90;;;;;;5114256;28;20044;-77
2022/09/17 05:09:44;;;;;;;1999.90;999.90;;;11.80;99.90;;;;;;5113892;28;20055;-77
2022/09/17 05:12:09;;;;;;;1999.90;999.90;;;12.00;99.90;;;;;;5113448;28;20044;-80
2022/09/17 05:14:35;;;;;;;1999.90;999.90;;;12.10;99.90;;;;;;5114961;28;20451;-77
2022/09/17 05:17:00;;;;;;;1999.90;999.90;;;12.30;99.90;;;;;;5115383;28;20130;-75
2022/09/17 05:19:27;;;;;;;1999.90;999.90;;;11.60;99.90;;;;;;5114256;28;20036;-77
2022/09/17 05:21:53;;;;;;;1999.90;999.90;;;12.50;99.90;;;;;;5114665;28;20047;-80
2022/09/17 05:24:19;;;;;;;1999.90;999.90;;;12.20;99.90;;;;;;5096618;28;20052;-82
2022/09/17 05:26:44;;;;;;;1999.90;999.90;;;12.30;99.90;;;;;;5079326;28;20040;-76
2022/09/17 05:29:10;;;;;;;1999.90;999.90;;;12.40;99.90;;;;;;5114441;28;20042;-77
2022/09/17 05:31:35;;;;;;;1999.90;999.90;;;11.60;99.90;;;;;;5112114;28;20065;-77
2022/09/17 05:34:01;;;;;;;1999.90;999.90;;;12.30;99.90;;;;;;5078769;28;20043;-77
2022/09/17 05:36:27;;;;;;;1999.90;999.90;;;12.20;99.90;;;;;;5114517;28;20095;-77
2022/09/17 05:38:52;;;;;;;1999.90;999.90;;;13.80;99.90;;;;;;5114026;28;20376;-77
2022/09/17 05:41:18;;;;;;;1999.90;999.90;;;12.30;99.90;;;;;;5095997;28;20039;-83
2022/09/17 05:43:44;;;;;;;1999.90;999.90;;;12.10;99.90;;;;;;5114470;28;20040;-77
2022/09/17 05:46:09;;;;;;;1999.90;999.90;;;13.00;99.90;;;;;;5113475;28;20473;-77
2022/09/17 05:48:35;;;;;;;1999.90;999.90;;;13.00;99.90;;;;;;5095703;28;20054;-77
2022/09/17 05:51:01;;;;;;;1999.90;999.90;;;13.00;99.90;;;;;;5114333;28;20468;-81
2022/09/17 05:53:27;;;;;;;1999.90;999.90;;;12.60;99.90;;;;;;5113603;28;20032;-78
2022/09/17 05:55:57;;;;;;;1999.90;999.90;;;13.50;99.90;;;;;;5113682;28;20050;-79
2022/09/17 05:58:22;;;;;;;1999.90;999.90;;;13.90;99.90;;;;;;5114087;28;20043;-80
2022/09/17 06:00:48;;;;;;;1999.90;999.90;;;13.00;99.90;;;;;;5113728;28;20040;-80
2022/09/17 06:03:16;;;;;;;1999.90;999.90;;;12.40;99.90;;;;;;5113179;28;20046;-79
2022/09/17 06:05:42;;;;;;;1999.90;999.90;;;12.40;99.90;;;;;;5114185;28;20039;-80
2022/09/17 06:08:08;;;;;;;1999.90;999.90;;;12.90;99.90;;;;;;5112285;28;20050;-81
2022/09/17 06:10:37;;;;;;;1999.90;999.90;;;13.00;99.90;;;;;;5095745;28;20341;-80
2022/09/17 06:13:03;;;;;;;1999.90;999.90;;;12.90;99.90;;;;;;5095835;28;20083;-80
2022/09/17 06:15:29;;;;;;;1999.90;999.90;;;12.30;99.90;;;;;;5113970;28;20050;-80
2022/09/17 06:17:55;;;;;;;1999.90;999.90;;;13.00;99.90;;;;;;5095260;28;20172;-79
2022/09/17 06:20:21;;;;;;;1999.90;999.90;;;12.70;99.90;;;;;;5112563;28;20112;-79
2022/09/17 06:22:47;;;;;;;1999.90;999.90;;;12.60;99.90;;;;;;5112491;28;20486;-79
2022/09/17 06:25:13;;;;;;;1999.90;999.90;;;13.40;99.90;;;;;;5114287;28;20035;-78
2022/09/17 06:27:38;;;;;;;1999.90;999.90;;;12.50;99.90;;;;;;5095139;28;20046;-78
2022/09/17 06:30:05;;;;;;;1999.90;999.90;;;12.70;99.90;;;;;;5093852;28;20035;-78
2022/09/17 06:32:32;;;;;;;1999.90;999.90;;;12.20;99.90;;;;;;5095176;28;20089;-81
2022/09/17 06:34:57;;;;;;;1999.90;999.90;;;13.00;99.90;;;;;;5113910;28;20498;-82
2022/09/17 06:37:28;;;;;;;1999.90;999.90;;;12.40;99.90;;;;;;5112230;28;20047;-83
2022/09/17 06:39:53;;;;;;;1999.90;999.90;;;12.90;99.90;;;;;;5112297;28;20089;-83
2022/09/17 06:42:19;;;;;;;1999.90;999.90;;;12.50;99.90;;;;;;5077042;28;20039;-83
2022/09/17 06:44:44;;;;;;;1999.90;999.90;;;14.00;99.90;;;;;;5112724;28;20036;-83
2022/09/17 06:47:10;;;;;;;1999.90;999.90;;;12.30;99.90;;;;;;5095413;28;20047;-82
2022/09/17 06:49:36;;;;;;;1999.90;999.90;;;12.80;99.90;;;;;;5113242;28;20035;-82
2022/09/17 06:52:03;;;;;;;1999.90;999.90;;;12.80;99.90;;;;;;5095004;28;20627;-85
2022/09/17 06:54:28;;;;;;;1999.90;999.90;;;12.30;99.90;;;;;;5095460;28;20043;-81
2022/09/17 06:56:54;;;;;;;1999.90;999.90;;;12.40;99.90;;;;;;5112165;28;20043;-81
2022/09/17 06:59:20;;;;;;;1999.90;999.90;;;13.10;99.90;;;;;;5112620;28;20043;-81
2022/09/17 07:01:46;;;;;;;1999.90;999.90;;;14.00;99.90;;;;;;5112754;28;20130;-80
2022/09/17 07:04:12;;;;;;;1999.90;999.90;;;13.20;99.90;;;;;;5113457;28;20046;-79
2022/09/17 07:06:38;;;;;;;1999.90;999.90;;;13.80;99.90;;;;;;5112471;28;20044;-80
2022/09/17 07:09:06;;;;;;;1999.90;999.90;;;13.50;99.90;;;;;;5094741;28;20422;-79
2022/09/17 07:11:32;;;;;;;1999.90;999.90;;;13.40;99.90;;;;;;5112741;28;20043;-83
2022/09/17 07:13:58;;;;;;;1999.90;999.90;;;13.70;99.90;;;;;;5112021;28;20043;-82
2022/09/17 07:16:25;;;;;;;1999.90;999.90;;;12.90;99.90;;;;;;5094023;28;20533;-77
2022/09/17 07:18:51;;;;;;;1999.90;999.90;;;13.70;99.90;;;;;;5112427;28;20088;-78
2022/09/17 07:21:17;;;;;;;1999.90;999.90;;;13.60;99.90;;;;;;5094943;28;20395;-78
2022/09/17 07:23:44;;;;;;;1999.90;999.90;;;14.20;99.90;;;;;;5111416;28;20048;-78
2022/09/17 07:26:14;;;;;;;1999.90;999.90;;;14.50;99.90;;;;;;5112930;28;20134;-77
2022/09/17 07:28:41;;;;;;;1999.90;999.90;;;13.90;99.90;;;;;;5112359;28;20664;-78
2022/09/17 07:31:07;;;;;;;1999.90;999.90;;;14.00;99.90;;;;;;5112772;28;20043;-79
2022/09/17 07:33:34;;;;;;;1999.90;999.90;;;13.70;99.90;;;;;;5112965;28;20441;-78
2022/09/17 07:36:02;;;;;;;1999.90;999.90;;;15.10;99.90;;;;;;5093772;28;20112;-78
2022/09/17 07:38:29;;;;;;;1999.90;999.90;;;16.30;99.90;;;;;;5112443;28;20499;-78
2022/09/17 07:41:04;;;;;;;1999.90;999.90;;;17.40;99.90;;;;;;5112493;28;20088;-83
2022/09/17 07:43:32;;;;;;;1999.90;999.90;;;17.60;99.90;;;;;;5112888;28;20388;-77
2022/09/17 07:45:58;;;;;;;;;;;19.40;99.90;;;;;;5112737;28;20544;-77
2022/09/17 07:48:24;;;;;;;1999.90;999.90;;;20.00;99.90;;;;;;5112848;28;19916;-77
2022/09/17 07:50:50;;;;;;;1999.90;999.90;;;19.60;99.90;;;;;;5094552;28;20114;-76
2022/09/17 07:53:16;;;;;;;1999.90;999.90;;;20.50;99.90;;;;;;5112501;28;20228;-76
2022/09/17 07:55:42;;;;;;;1999.90;999.90;;;20.00;99.90;;;;;;5111917;28;20500;-76
2022/09/17 07:58:08;;;;;;;1999.90;999.90;;;19.40;99.90;;;;;;5094540;28;20035;-76
2022/09/17 08:00:33;;;;;;;1999.90;999.90;;;19.20;99.90;;;;;;5112853;28;20035;-77
2022/09/17 08:02:59;;;;;;;1999.90;999.90;;;17.80;99.90;;;;;;5111614;28;20042;-77
2022/09/17 08:05:25;;;;;;;1999.90;999.90;;;18.00;99.90;;;;;;5110393;28;20499;-77
2022/09/17 08:07:52;;;;;;;1999.90;999.90;;;20.10;99.90;;;;;;5110884;28;20066;-81
2022/09/17 08:10:20;;;;;;;1999.90;999.90;;;20.40;99.90;;;;;;5110913;28;20032;-76
2022/09/17 08:12:47;;;;;;;;;;;20.40;99.90;;;;;;5111313;28;20044;-77
2022/09/17 08:15:14;;;;;;;1999.90;999.90;;;20.50;99.90;;;;;;5110214;28;19923;-77
2022/09/17 08:17:44;;;;;;;1999.90;999.90;;;21.20;99.90;;;;;;5111395;28;20070;-83
2022/09/17 08:20:10;;;;;;;1999.90;999.90;;;21.00;99.90;;;;;;5111080;28;20032;-78
2022/09/17 08:22:36;;;;;;;1999.90;999.90;;;19.20;99.90;;;;;;5076303;28;20083;-78
2022/09/17 08:25:03;;;;;;;1999.90;999.90;;;19.50;99.90;;;;;;5110878;28;20082;-79
2022/09/17 08:27:32;;;;;;;1999.90;884.00;;;18.20;99.90;;;;;;5111038;28;20468;-79
2022/09/17 08:29:57;;;;;;;1999.90;706.75;;;17.80;99.90;;;;;;5110663;28;20071;-81
2022/09/17 08:32:24;;;;;;;1999.90;963.53;;;16.00;99.90;;;;;;5110523;28;20455;-79
2022/09/17 08:34:49;;;;;;;1999.90;999.90;;;16.30;99.90;;;;;;5092745;28;20036;-80
2022/09/17 08:37:15;;;;;;;1999.90;999.90;;;16.30;99.90;;;;;;5110371;28;20268;-80
2022/09/17 08:39:41;;;;;;;1999.90;999.90;;;16.20;99.90;;;;;;5110805;28;20036;-81
2022/09/17 08:42:30;;;;;;;1999.90;999.90;;;15.40;99.90;;;;;;5109936;28;20480;-80
2022/09/17 08:44:56;;;;;;;1999.90;999.90;;;15.10;99.90;;;;;;5110310;28;20082;-80
2022/09/17 08:47:29;;;;;;;1999.90;999.90;;;17.30;99.90;;;;;;5112070;28;20067;-79
2022/09/17 08:50:02;;;;;;;1999.90;999.90;;;17.20;99.90;;;;;;5114513;28;20126;-83
2022/09/17 08:52:53;;;;;;;1999.90;999.90;;;18.50;99.90;;;;;;5113355;28;20041;-80
2022/09/17 08:55:30;;;;;;;1999.90;999.90;;;20.00;99.90;;;;;;5113986;28;20467;-79
2022/09/17 08:58:03;;;;;;;1999.90;999.90;;;19.70;99.90;;;;;;5114128;28;20039;-80
2022/09/17 09:00:42;;;;;;;1999.90;999.90;;;20.30;99.90;;;;;;5113818;28;20046;-84
2022/09/17 09:03:39;;;;;;;1999.90;999.90;;;21.10;99.90;;;;;;5113805;28;20043;-79
2022/09/17 09:06:04;;;;;;;1999.90;999.90;;;21.70;99.90;;;;;;5112622;28;20050;-81
2022/09/17 09:08:35;;;;;;;1999.90;999.90;;;20.80;99.90;;;;;;5095138;28;20380;-82
2022/09/17 09:11:04;;;;;;;1999.90;999.90;;;21.00;99.90;;;;;;5113168;28;20504;-82
2022/09/17 09:13:43;;;;;;;1999.90;580.38;;;19.00;99.90;;;;;;5113737;28;20496;-82
2022/09/17 09:16:17;;;;;;;1999.90;626.15;;;17.80;99.90;;;;;;5094970;28;20059;-82
2022/09/17 09:18:42;;;;;;;1999.90;798.72;;;18.50;99.90;;;;;;5113573;28;20136;-82
2022/09/17 09:21:23;;;;;;;1999.90;999.90;;;17.60;99.90;;;;;;5111965;28;20087;-81
2022/09/17 09:23:57;;;;;;;1999.90;999.90;;;18.60;99.90;;;;;;5112623;28;20070;-76
2022/09/17 09:26:37;;;;;;;1999.90;999.90;;;20.10;99.90;;;;;;5111982;28;20115;-84
2022/09/17 09:29:49;;;;;;;1999.90;999.90;;;21.40;99.90;;;;;;5113310;28;20040;-86
2022/09/17 09:32:39;;;;;;;1999.90;999.90;;;21.40;99.90;;;;;;5030005;28;20088;-77
2022/09/17 09:35:22;;;;;;;1999.90;871.78;;;23.10;99.90;;;;;;5113064;28;20066;-78
2022/09/17 09:38:21;;;;;;;1999.90;999.90;;;21.60;99.90;;;;;;5094643;28;20055;-79
2022/09/17 09:40:55;;;;;;;1999.90;999.90;;;21.60;99.90;;;;;;5095264;28;20122;-78
2022/09/17 09:43:23;;;;;;;1999.90;999.90;;;22.40;99.90;;;;;;5112984;28;20560;-78
2022/09/17 09:46:04;;;;;;;;;;;22.80;99.90;;;;;;5113726;28;20404;-78
2022/09/17 09:48:48;;;;;;;1999.90;999.90;;;22.80;99.90;;;;;;5112689;28;19919;-78
2022/09/17 09:51:29;;;;;;;1999.90;999.90;;;22.60;99.90;;;;;;5113026;28;20134;-79
2022/09/17 09:54:12;;;;;;;1999.90;999.90;;;20.30;99.90;;;;;;5112491;28;20040;-79
2022/09/17 09:56:59;;;;;;;1999.90;999.90;;;20.60;99.90;;;;;;5112855;28;20050;-81
2022/09/17 09:59:25;;;;;;;1999.90;999.90;;;19.30;99.90;;;;;;5112430;28;20035;-79
2022/09/17 10:01:51;;;;;;;1999.90;999.90;;;17.80;99.90;;;;;;5112372;28;20126;-84
2022/09/17 10:04:23;;;;;;;1999.90;818.30;;;17.10;99.90;;;;;;5078219;28;20062;-81
2022/09/17 10:06:58;;;;;;;1999.90;995.63;;;19.30;99.90;;;;;;5112969;28;20047;-81
2022/09/17 10:09:24;;;;;;;1999.90;999.90;;;19.10;99.90;;;;;;5112858;28;20387;-81
2022/09/17 10:12:14;;;;;;;1999.90;997.40;;;20.20;99.90;;;;;;5094449;28;20051;-85
2022/09/17 10:14:40;;;;;;;;;;;21.50;99.90;;;;;;5113073;28;20043;-79
2022/09/17 10:17:15;;;;;;;1999.90;999.90;;;21.50;99.90;;;;;;5112031;28;19930;-77
2022/09/17 10:19:42;;;;;;;1999.90;999.90;;;21.80;99.90;;;;;;5112226;28;20126;-78
2022/09/17 10:22:32;;;;;;;1999.90;999.90;;;21.00;99.90;;;;;;5111827;28;20480;-78
2022/09/17 10:25:00;;;;;;;1999.90;999.90;;;19.20;99.90;;;;;;5111093;28;20047;-79
2022/09/17 10:27:26;;;;;;;1999.90;833.20;;;18.80;99.90;;;;;;5110212;28;20131;-79
2022/09/17 10:30:07;;;;;;;1999.90;871.70;;;18.30;99.90;;;;;;5112527;28;20050;-78
2022/09/17 10:32:33;;;;;;;1999.90;999.90;;;18.40;99.90;;;;;;5112424;28;20048;-78
2022/09/17 10:35:19;;;;;;;1999.90;621.28;;;18.30;99.90;;;;;;5112036;28;20048;-78
2022/09/17 10:37:48;;;;;;;1999.90;999.90;;;20.80;99.90;;;;;;5097365;28;20411;-79
2022/09/17 10:40:19;;;;;;;1999.90;999.90;;;20.70;99.90;;;;;;5111394;28;20040;-81
2022/09/17 10:43:13;;;;;;;1999.90;814.95;;;21.30;99.90;;;;;;5112219;28;20055;-78
2022/09/17 10:45:43;;;;;;;1999.90;999.90;;;22.50;99.90;;;;;;5093179;28;20104;-78
2022/09/17 10:48:19;;;;;;;1999.90;620.33;;;23.70;99.90;;;;;;5110576;28;20043;-77
2022/09/17 10:50:50;;;;;;;1999.90;886.95;;;21.30;99.90;;;;;;5094305;28;20396;-80
2022/09/17 10:53:18;;;;;;;1999.90;944.15;;;20.70;99.90;;;;;;5111438;28;20050;-76
2022/09/17 10:55:52;;;;;;;1999.90;999.90;;;18.70;99.90;;;;;;5111663;28;20476;-76
2022/09/17 10:58:36;;;;;;;1999.90;999.90;;;18.80;99.90;;;;;;5111135;28;20047;-74
2022/09/17 11:01:21;;;;;;;1999.90;999.90;;;16.80;99.90;;;;;;5111696;28;20131;-75
2022/09/17 11:04:41;;;;;;;1999.90;999.90;;;17.70;99.90;;;;;;5111179;28;20492;-75
2022/09/17 11:07:12;;;;;;;1999.90;999.90;;;16.50;99.90;;;;;;5027833;28;20049;-82
2022/09/17 11:09:38;;;;;;;1999.90;999.90;;;15.70;99.90;;;;;;5107501;28;20078;-76
2022/09/17 11:12:13;;;;;;;1999.90;999.90;;;15.30;99.90;;;;;;5112879;28;20043;-75
2022/09/17 11:14:57;;;;;;;1999.90;999.90;;;15.20;99.90;;;;;;5113196;28;20055;-75
2022/09/17 11:17:45;;;;;;;1999.90;711.08;;;15.40;99.90;;;;;;5111987;28;20055;-74
2022/09/17 11:20:32;;;;;;;1999.90;999.90;;;15.80;99.90;;;;;;5112831;28;20036;-75
2022/09/17 11:23:19;;;;;;;1999.90;999.90;;;18.00;99.90;;;;;;5112750;28;20096;-75
2022/09/17 11:26:10;;;;;;;1999.90;999.90;;;18.30;99.90;;;;;;5113091;28;20047;-75
2022/09/17 11:29:06;;;;;;;1999.90;930.70;;;19.50;99.90;;;;;;5112243;28;20051;-75
2022/09/17 11:31:59;;;;;;;1999.90;963.83;;;18.70;99.90;;;;;;5078387;28;20047;-75
2022/09/17 11:34:28;;;;;;;1999.90;999.90;;;19.20;99.90;;;;;;5111469;28;20055;-75
2022/09/17 11:37:15;;;;;;;1999.90;999.90;;;19.80;99.90;;;;;;5094143;28;20051;-81
2022/09/17 11:39:56;;;;;;;1999.90;999.90;;;20.60;99.90;;;;;;5112329;28;20046;-75
2022/09/17 11:42:37;;;;;;;1999.90;999.90;;;20.90;99.90;;;;;;5077840;28;20359;-74
2022/09/17 11:45:18;;;;;;;1999.90;721.22;;;22.50;99.90;;;;;;5112825;28;20395;-75
2022/09/17 11:48:06;;;;;;;1999.90;999.90;;;21.00;99.90;;;;;;5112601;28;20040;-75
2022/09/17 11:51:01;;;;;;;1999.90;854.67;;;21.00;99.90;;;;;;5112392;28;20086;-75
2022/09/17 11:53:42;;;;;;;1999.90;999.90;;;19.90;99.90;;;;;;5111434;28;20040;-76
2022/09/17 11:56:24;;;;;;;1780.25;796.65;;;19.00;99.90;;;;;;5112281;28;20044;-75
2022/09/17 11:59:29;;;;;;;1572.82;322.90;;;18.10;99.90;;;;;;5112005;28;20506;-76
2022/09/17 12:02:20;;;;;;;1999.90;621.38;;;17.80;99.90;;;;;;5112432;28;20459;-75
2022/09/17 12:04:51;;;;;;;1984.78;417.42;;;18.20;99.90;;;;;;5094242;28;20052;-76
2022/09/17 12:07:42;;;;;;;1999.90;465.92;;;17.70;99.90;;;;;;5111891;28;20392;-77
2022/09/17 12:10:35;;;;;;;1999.90;948.60;;;18.20;99.90;;;;;;5111840;28;20048;-77
2022/09/17 12:13:15;;;;;;;1999.90;911.47;;;17.70;99.90;;;;;;5094702;28;20051;-76
2022/09/17 12:15:48;;;;;;;1999.90;723.80;;;17.50;99.90;;;;;;5094172;28;20051;-76
2022/09/17 12:18:36;;;;;;;1999.90;901.75;;;17.20;99.90;;;;;;5112272;28;20044;-77
2022/09/17 12:21:07;;;;;;;1999.90;999.90;;;17.70;99.90;;;;;;5113336;28;20043;-75
2022/09/17 12:23:44;;;;;;;1999.90;896.30;;;17.80;99.90;;;;;;5116061;28;20130;-76
2022/09/17 12:26:31;;;;;;;1999.90;987.53;;;17.50;99.90;;;;;;5115467;28;20044;-77